Portada
METAR-TAF:

METAR-TAF

Aeropuertos :

Mahshahr, Irán

latitud: 30-33-23N, longitud: 049-09-07E, altitud: 2 m

Observación

El informe se hizo hace 26 minutos, a las 04:00 UTC
Viento calma
Temperatura 34°C
Humedad 26%
Presión 1001 hPa
Visibilidad: 6000 m

METAR: OIAM 250400Z 00000KT 6000 NSC 34/12 Q1001

Hora: 08:56 (04:26 UTC)


TAF: falta

Observaciones y pronósticos meteorológicos de más de 4000 aeropuertos (mensajes METAR y TAF).

Los puntos amarillos y rojos representan las estaciones disponibles.

Ponga el ratón en el punto deseado para ver el nombre de la estación.

Haga clic para ver las observaciones y los pronósticos meteorológicos.

Para cambiar el mapa : haga clic en los botones verdes con una cruz de color negro para hacer un zoom, en el botón verde con un guión para alejar o en las flechas verdes para mapas adyacentes.


METAR-TAF: